Terminal Aerodrome Forecast
Issued by NWS Lake Charles, LA

Home | Current Version | Previous Version | Text Only | Print | Product List | Glossary On
Versions: 1 2 3 4 5 6 7 8 9 10 11 12 13 14 15 16 17 18 19 20 21
000
FTUS44 KLCH 041700
TAFBPT
TAF
KBPT 041720Z 0418/0518 19012G17KT P6SM VCSH BKN015 OVC025
     FM050100 16007KT 4SM BR VCSH FEW003 OVC006
     FM050600 35016G22KT 4SM RA BR OVC007
     FM051000 36021G30KT P6SM -RA OVC015=

USA.gov is the U.S. government's official web portal to all federal, state and local government web resources and services.